Upstream stations:
Downstream station:
SHEF ID: WANO2 Cimarron River near Waynoka, OK
STATION TYPE:
Regulating: Stage = 9.00, Flow = 4005
PRECIP STAGE RIV-FLOW BAT-LOAD
in ft cfs volt
Ccp-Rev Ccp-Rev Ccp-Rev Ccp-Rev
(US/Central)
01/19 00:00 0.00 5.62 31 12.73
01/19 01:00 0.00 5.62 31 12.73
01/19 02:00 0.00 5.62 31 12.73
01/19 03:00 0.00 5.62 31 12.65
01/19 04:00 0.00 5.63 32 12.65
01/19 05:00 0.00 5.64 34 12.65
01/19 06:00 0.00 5.63 32 12.65
01/19 07:00 0.00 5.64 34 12.65
01/19 08:00 0.00 5.62 31 12.57
01/19 09:00 0.00 5.62 31 12.57
01/19 10:00 0.00 5.59 27 12.81
01/19 11:00 0.00 5.62 31 13.21
01/19 12:00 0.00 5.62 31 13.44
01/19 13:00 0.00 5.59 27 14.00
01/19 14:00 0.00 5.61 29 13.84
01/19 15:00 0.00 5.57 22 13.76
01/19 16:00 0.00 5.59 27 13.76
01/19 17:00 0.00 5.60 28 13.68
01/19 18:00 0.00 5.60 28 13.44
01/19 19:00 0.00 5.63 32 13.13
01/19 20:00 0.00 5.58 24 12.89
01/19 21:00 0.00 5.63 32 12.81
01/19 22:00 0.00 5.60 28 12.73
01/19 23:00 0.00 5.64 34 12.73